sensor_id;sensor_type;location;lat;lon;timestamp;pressure;altitude;pressure_sealevel;temperature;humidity
21664;BME280;10993;52.510;13.456;2023-05-11T00:03:52;56664.06;;;-146.93;80.82
21664;BME280;10993;52.510;13.456;2023-05-11T00:08:53;56694.41;;;-146.93;82.21
21664;BME280;10993;52.510;13.456;2023-05-11T00:13:54;56649.88;;;-146.93;83.25
21664;BME280;10993;52.510;13.456;2023-05-11T00:18:55;56666.06;;;-146.93;84.46
21664;BME280;10993;52.510;13.456;2023-05-11T00:23:55;56666.06;;;-146.93;84.41
21664;BME280;10993;52.510;13.456;2023-05-11T00:28:57;56645.81;;;-146.93;84.11
21664;BME280;10993;52.510;13.456;2023-05-11T00:33:57;57808.22;;;-146.93;84.26
21664;BME280;10993;52.510;13.456;2023-05-11T00:38:58;56649.88;;;-146.93;84.69
21664;BME280;10993;52.510;13.456;2023-05-11T00:43:59;56649.88;;;-146.93;85.09
21664;BME280;10993;52.510;13.456;2023-05-11T00:49:00;56609.38;;;-146.93;85.27
21664;BME280;10993;52.510;13.456;2023-05-11T00:54:01;56688.34;;;-146.93;85.17
21664;BME280;10993;52.510;13.456;2023-05-11T00:59:03;56615.47;;;-146.93;85.33
21664;BME280;10993;52.510;13.456;2023-05-11T01:04:04;56607.34;;;-146.93;86.36
21664;BME280;10993;52.510;13.456;2023-05-11T01:09:08;56678.22;;;-146.93;85.85
21664;BME280;10993;52.510;13.456;2023-05-11T01:14:15;56581.03;;;-146.93;84.97
21664;BME280;10993;52.510;13.456;2023-05-11T01:19:28;56536.50;;;-146.93;84.94
21664;BME280;10993;52.510;13.456;2023-05-11T01:24:43;56682.28;;;-146.93;85.37
21664;BME280;10993;52.510;13.456;2023-05-11T01:30:20;56645.81;;;-146.93;86.27
21664;BME280;10993;52.510;13.456;2023-05-11T01:35:24;56627.59;;;-146.93;87.04
21664;BME280;10993;52.510;13.456;2023-05-11T01:40:27;56611.41;;;-146.93;87.83
21664;BME280;10993;52.510;13.456;2023-05-11T01:45:32;56585.09;;;-146.93;88.95
21664;BME280;10993;52.510;13.456;2023-05-11T01:50:35;56593.19;;;-146.93;89.39
21664;BME280;10993;52.510;13.456;2023-05-11T01:55:38;56605.34;;;-146.93;89.49
21664;BME280;10993;52.510;13.456;2023-05-11T02:00:42;56548.66;;;-146.93;89.68
21664;BME280;10993;52.510;13.456;2023-05-11T02:05:45;56548.66;;;-146.93;90.29
21664;BME280;10993;52.510;13.456;2023-05-11T02:10:48;56623.56;;;-146.93;91.19
21664;BME280;10993;52.510;13.456;2023-05-11T02:15:51;56568.88;;;-146.93;90.89
21664;BME280;10993;52.510;13.456;2023-05-11T02:20:55;56591.16;;;-146.93;90.92
21664;BME280;10993;52.510;13.456;2023-05-11T02:25:57;56419.06;;;-146.93;91.00
21664;BME280;10993;52.510;13.456;2023-05-11T02:31:01;56564.84;;;-146.93;91.03
21664;BME280;10993;52.510;13.456;2023-05-11T02:36:04;56577.00;;;-146.93;90.08
21664;BME280;10993;52.510;13.456;2023-05-11T02:41:10;56562.81;;;-146.93;89.53
21664;BME280;10993;52.510;13.456;2023-05-11T02:46:17;56496.00;;;-146.93;88.16
21664;BME280;10993;52.510;13.456;2023-05-11T02:51:21;56880.72;;;-146.93;86.97
21664;BME280;10993;52.510;13.456;2023-05-11T02:56:23;56538.53;;;-146.93;86.56
21664;BME280;10993;52.510;13.456;2023-05-11T03:01:26;56536.50;;;-146.93;86.33
21664;BME280;10993;52.510;13.456;2023-05-11T03:06:27;56469.69;;;-146.93;86.11
21664;BME280;10993;52.510;13.456;2023-05-11T03:11:27;56532.44;;;-146.93;85.68
21664;BME280;10993;52.510;13.456;2023-05-11T03:16:30;56554.72;;;-146.93;85.01
21664;BME280;10993;52.510;13.456;2023-05-11T03:21:31;56581.03;;;-146.93;83.43
21664;BME280;10993;52.510;13.456;2023-05-11T03:26:33;56564.84;;;-146.93;82.45
21664;BME280;10993;52.510;13.456;2023-05-11T03:31:36;56560.78;;;-146.93;81.19
21664;BME280;10993;52.510;13.456;2023-05-11T03:36:37;56572.94;;;-146.93;80.29
21664;BME280;10993;52.510;13.456;2023-05-11T03:41:38;56524.34;;;-146.93;81.05
21664;BME280;10993;52.510;13.456;2023-05-11T03:46:43;56532.44;;;-146.93;79.77
21664;BME280;10993;52.510;13.456;2023-05-11T03:51:45;56556.75;;;-146.93;78.14
21664;BME280;10993;52.510;13.456;2023-05-11T03:56:45;56516.25;;;-146.93;76.44
21664;BME280;10993;52.510;13.456;2023-05-11T04:01:47;56577.00;;;-146.93;75.17
21664;BME280;10993;52.510;13.456;2023-05-11T04:06:54;56605.34;;;-146.93;69.63
21664;BME280;10993;52.510;13.456;2023-05-11T04:11:55;56763.28;;;-146.93;63.58
21664;BME280;10993;52.510;13.456;2023-05-11T04:16:56;56813.88;;;-146.93;59.56
21664;BME280;10993;52.510;13.456;2023-05-11T04:21:57;56817.94;;;-146.93;56.45
21664;BME280;10993;52.510;13.456;2023-05-11T04:26:57;56951.59;;;-146.93;51.49
21664;BME280;10993;52.510;13.456;2023-05-11T04:31:59;56963.72;;;-146.93;51.49
21664;BME280;10993;52.510;13.456;2023-05-11T04:36:59;56986.00;;;-146.93;49.25
21664;BME280;10993;52.510;13.456;2023-05-11T04:42:00;57004.22;;;-146.93;48.30
21664;BME280;10993;52.510;13.456;2023-05-11T04:47:02;57111.56;;;-146.93;44.65
21664;BME280;10993;52.510;13.456;2023-05-11T04:52:02;57180.41;;;-146.93;42.76
21664;BME280;10993;52.510;13.456;2023-05-11T04:57:03;57233.06;;;-146.93;41.40
21664;BME280;10993;52.510;13.456;2023-05-11T05:02:04;57289.75;;;-146.93;40.84
21664;BME280;10993;52.510;13.456;2023-05-11T05:07:05;57393.03;;;-146.93;39.21
21664;BME280;10993;52.510;13.456;2023-05-11T05:12:06;57684.69;;;-146.93;36.50
21664;BME280;10993;52.510;13.456;2023-05-11T05:17:08;57785.94;;;-146.93;35.73
21664;BME280;10993;52.510;13.456;2023-05-11T05:22:08;57609.75;;;-146.93;36.11
21664;BME280;10993;52.510;13.456;2023-05-11T05:27:09;57470.00;;;-146.93;36.74
21664;BME280;10993;52.510;13.456;2023-05-11T05:32:10;57585.44;;;-146.93;36.61
21664;BME280;10993;52.510;13.456;2023-05-11T05:37:11;57621.91;;;-146.93;36.17
21664;BME280;10993;52.510;13.456;2023-05-11T05:42:11;57757.59;;;-146.93;35.29
21664;BME280;10993;52.510;13.456;2023-05-11T05:47:13;58014.84;;;-146.93;34.43
21664;BME280;10993;52.510;13.456;2023-05-11T05:52:13;58243.72;;;-146.93;32.40
21664;BME280;10993;52.510;13.456;2023-05-11T05:57:13;58278.16;;;-146.93;32.41
21664;BME280;10993;52.510;13.456;2023-05-11T06:02:15;58108.00;;;-146.93;32.67
21664;BME280;10993;52.510;13.456;2023-05-11T06:07:15;58332.88;;;-146.93;31.90
21664;BME280;10993;52.510;13.456;2023-05-11T06:12:16;58079.66;;;-146.93;32.86
21664;BME280;10993;52.510;13.456;2023-05-11T06:17:17;58547.59;;;-146.93;31.61
21664;BME280;10993;52.510;13.456;2023-05-11T06:22:18;58334.88;;;-146.93;31.40
21664;BME280;10993;52.510;13.456;2023-05-11T06:27:18;58484.78;;;-146.93;30.99
21664;BME280;10993;52.510;13.456;2023-05-11T06:32:20;58752.22;;;-146.93;29.94
21664;BME280;10993;52.510;13.456;2023-05-11T06:37:20;58519.22;;;-146.93;30.33
21664;BME280;10993;52.510;13.456;2023-05-11T06:42:20;59240.53;;;-146.93;28.58
21664;BME280;10993;52.510;13.456;2023-05-11T06:47:25;59848.47;;;-146.93;26.91
21664;BME280;10993;52.510;13.456;2023-05-11T06:52:25;60099.78;;;-146.93;26.02
21664;BME280;10993;52.510;13.456;2023-05-11T06:57:26;60188.94;;;-146.93;26.15
21664;BME280;10993;52.510;13.456;2023-05-11T07:02:27;60195.03;;;-146.93;26.06
21664;BME280;10993;52.510;13.456;2023-05-11T07:07:28;60296.38;;;-146.93;25.38
21664;BME280;10993;52.510;13.456;2023-05-11T07:12:28;59329.69;;;-146.93;26.83
21664;BME280;10993;52.510;13.456;2023-05-11T07:17:30;59874.81;;;-146.93;26.05
21664;BME280;10993;52.510;13.456;2023-05-11T07:22:30;59331.69;;;-146.93;26.67
21664;BME280;10993;52.510;13.456;2023-05-11T07:27:30;58995.34;;;-146.93;27.34
21664;BME280;10993;52.510;13.456;2023-05-11T07:32:33;59595.13;;;-146.93;26.09
21664;BME280;10993;52.510;13.456;2023-05-11T07:37:33;59283.06;;;-146.93;26.79
21664;BME280;10993;52.510;13.456;2023-05-11T07:42:34;60057.22;;;-146.93;25.12
21664;BME280;10993;52.510;13.456;2023-05-11T07:47:35;60231.53;;;-146.93;24.88
21664;BME280;10993;52.510;13.456;2023-05-11T07:52:36;59805.91;;;-146.93;25.65
21664;BME280;10993;52.510;13.456;2023-05-11T07:57:36;60460.56;;;-146.93;24.86
21664;BME280;10993;52.510;13.456;2023-05-11T08:02:38;60347.06;;;-146.93;24.96
21664;BME280;10993;52.510;13.456;2023-05-11T08:07:38;60049.09;;;-146.93;24.97
21664;BME280;10993;52.510;13.456;2023-05-11T08:12:39;59955.88;;;-146.93;25.16
21664;BME280;10993;52.510;13.456;2023-05-11T08:17:40;59963.97;;;-146.93;25.46
21664;BME280;10993;52.510;13.456;2023-05-11T08:22:43;59337.78;;;-146.93;26.32
21664;BME280;10993;52.510;13.456;2023-05-11T08:27:43;60511.25;;;-146.93;26.91
21664;BME280;10993;52.510;13.456;2023-05-11T08:32:45;59351.97;;;-146.93;26.30
21664;BME280;10993;52.510;13.456;2023-05-11T08:37:45;59110.84;;;-146.93;26.81
21664;BME280;10993;52.510;13.456;2023-05-11T08:42:47;58995.34;;;-146.93;27.24
21664;BME280;10993;52.510;13.456;2023-05-11T08:47:50;58881.88;;;-146.93;27.50
21664;BME280;10993;52.510;13.456;2023-05-11T08:52:51;59392.50;;;-146.93;26.35
21664;BME280;10993;52.510;13.456;2023-05-11T08:57:52;59493.81;;;-146.93;26.17
21664;BME280;10993;52.510;13.456;2023-05-11T09:02:57;59048.03;;;-146.93;27.05
21664;BME280;10993;52.510;13.456;2023-05-11T09:07:59;58892.00;;;-146.93;26.87
21664;BME280;10993;52.510;13.456;2023-05-11T09:13:01;59163.53;;;-146.93;26.40
21664;BME280;10993;52.510;13.456;2023-05-11T09:18:03;59560.69;;;-146.93;25.76
21664;BME280;10993;52.510;13.456;2023-05-11T09:23:03;59722.81;;;-146.93;25.16
21664;BME280;10993;52.510;13.456;2023-05-11T09:28:04;59074.38;;;-146.93;26.13
21664;BME280;10993;52.510;13.456;2023-05-11T09:33:05;59505.97;;;-146.93;25.19
21664;BME280;10993;52.510;13.456;2023-05-11T09:38:08;59258.75;;;-146.93;24.95
21664;BME280;10993;52.510;13.456;2023-05-11T09:43:15;59911.28;;;-146.93;23.92
21664;BME280;10993;52.510;13.456;2023-05-11T09:48:26;59822.13;;;-146.93;24.05
21664;BME280;10993;52.510;13.456;2023-05-11T09:53:34;60355.16;;;-146.93;24.12
21664;BME280;10993;52.510;13.456;2023-05-11T09:58:44;60014.66;;;-146.93;23.49
21664;BME280;10993;52.510;13.456;2023-05-11T10:03:51;60298.41;;;-146.93;23.35
21664;BME280;10993;52.510;13.456;2023-05-11T10:08:54;60059.25;;;-146.93;23.42
21664;BME280;10993;52.510;13.456;2023-05-11T10:13:55;60132.19;;;-146.93;23.20
21664;BME280;10993;52.510;13.456;2023-05-11T10:18:57;59757.25;;;-146.93;23.99
21664;BME280;10993;52.510;13.456;2023-05-11T10:23:59;59961.94;;;-146.93;23.44
21664;BME280;10993;52.510;13.456;2023-05-11T10:29:00;59358.03;;;-146.93;24.18
21664;BME280;10993;52.510;13.456;2023-05-11T10:34:02;59058.16;;;-146.93;25.26
21664;BME280;10993;52.510;13.456;2023-05-11T10:39:03;59096.66;;;-146.93;25.43
21664;BME280;10993;52.510;13.456;2023-05-11T10:44:23;59439.09;;;-146.93;24.41
21664;BME280;10993;52.510;13.456;2023-05-11T10:49:42;59279.03;;;-146.93;24.50
21664;BME280;10993;52.510;13.456;2023-05-11T10:54:58;58419.97;;;-146.93;26.89
21664;BME280;10993;52.510;13.456;2023-05-11T11:00:14;58176.88;;;-146.93;27.10
21664;BME280;10993;52.510;13.456;2023-05-11T11:05:32;58569.88;;;-146.93;26.03
21664;BME280;10993;52.510;13.456;2023-05-11T11:10:34;58857.56;;;-146.93;25.39
21664;BME280;10993;52.510;13.456;2023-05-11T11:16:08;58480.75;;;-146.93;26.80
21664;BME280;10993;52.510;13.456;2023-05-11T11:21:10;58225.50;;;-146.93;26.79
21664;BME280;10993;52.510;13.456;2023-05-11T11:26:16;58468.59;;;-146.93;26.79
21664;BME280;10993;52.510;13.456;2023-05-11T11:31:22;58288.28;;;-146.93;27.48
21664;BME280;10993;52.510;13.456;2023-05-11T11:37:01;58241.69;;;-146.93;27.15
21664;BME280;10993;52.510;13.456;2023-05-11T11:42:03;57968.25;;;-146.93;28.63
21664;BME280;10993;52.510;13.456;2023-05-11T11:47:11;58014.84;;;-146.93;28.88
21664;BME280;10993;52.510;13.456;2023-05-11T11:52:32;58112.06;;;-146.93;28.06
21664;BME280;10993;52.510;13.456;2023-05-11T11:57:42;58221.44;;;-146.93;27.27
21664;BME280;10993;52.510;13.456;2023-05-11T12:02:50;58225.50;;;-146.93;27.00
21664;BME280;10993;52.510;13.456;2023-05-11T12:07:52;58168.78;;;-146.93;26.91
21664;BME280;10993;52.510;13.456;2023-05-11T12:12:52;58148.53;;;-146.93;26.68
21664;BME280;10993;52.510;13.456;2023-05-11T12:17:54;58065.47;;;-146.93;26.49
21664;BME280;10993;52.510;13.456;2023-05-11T12:22:56;58144.47;;;-146.93;26.33
21664;BME280;10993;52.510;13.456;2023-05-11T12:27:56;58079.66;;;-146.93;26.39
21664;BME280;10993;52.510;13.456;2023-05-11T12:33:01;58150.53;;;-146.93;26.67
21664;BME280;10993;52.510;13.456;2023-05-11T12:38:09;57976.34;;;-146.93;27.09
21664;BME280;10993;52.510;13.456;2023-05-11T12:43:15;58016.84;;;-146.93;27.02
21664;BME280;10993;52.510;13.456;2023-05-11T12:48:16;58071.56;;;-146.93;27.01
21664;BME280;10993;52.510;13.456;2023-05-11T12:53:18;58071.56;;;-146.93;26.74
21664;BME280;10993;52.510;13.456;2023-05-11T12:58:19;58182.97;;;-146.93;26.47
21664;BME280;10993;52.510;13.456;2023-05-11T13:03:20;58128.25;;;-146.93;25.76
21664;BME280;10993;52.510;13.456;2023-05-11T13:08:23;58091.81;;;-146.93;25.58
21664;BME280;10993;52.510;13.456;2023-05-11T13:13:26;58132.31;;;-146.93;25.03
21664;BME280;10993;52.510;13.456;2023-05-11T13:18:27;58156.63;;;-146.93;24.86
21664;BME280;10993;52.510;13.456;2023-05-11T13:23:28;58253.84;;;-146.93;24.81
21664;BME280;10993;52.510;13.456;2023-05-11T13:28:32;58158.66;;;-146.93;25.03
21664;BME280;10993;52.510;13.456;2023-05-11T13:33:32;58085.72;;;-146.93;25.57
21664;BME280;10993;52.510;13.456;2023-05-11T13:38:35;58099.91;;;-146.93;25.21
21664;BME280;10993;52.510;13.456;2023-05-11T13:43:35;58142.44;;;-146.93;25.32
21664;BME280;10993;52.510;13.456;2023-05-11T13:48:35;58197.13;;;-146.93;25.34
21664;BME280;10993;52.510;13.456;2023-05-11T13:53:37;58993.31;;;-146.93;25.17
21664;BME280;10993;52.510;13.456;2023-05-11T13:58:37;58243.72;;;-146.93;25.10
21664;BME280;10993;52.510;13.456;2023-05-11T14:03:38;58247.78;;;-146.93;25.20
21664;BME280;10993;52.510;13.456;2023-05-11T14:08:39;58257.91;;;-146.93;25.16
21664;BME280;10993;52.510;13.456;2023-05-11T14:13:40;58195.13;;;-146.93;25.13
21664;BME280;10993;52.510;13.456;2023-05-11T14:18:40;58263.97;;;-146.93;24.86
21664;BME280;10993;52.510;13.456;2023-05-11T14:23:42;58318.69;;;-146.93;24.61
21664;BME280;10993;52.510;13.456;2023-05-11T14:28:42;58247.78;;;-146.93;24.97
21664;BME280;10993;52.510;13.456;2023-05-11T14:33:43;58343.00;;;-146.93;24.92
21664;BME280;10993;52.510;13.456;2023-05-11T14:38:44;58353.13;;;-146.93;24.78
21664;BME280;10993;52.510;13.456;2023-05-11T14:43:45;58207.25;;;-146.93;24.64
21664;BME280;10993;52.510;13.456;2023-05-11T14:48:45;58280.19;;;-146.93;24.77
21664;BME280;10993;52.510;13.456;2023-05-11T14:53:47;58290.31;;;-146.93;24.71
21664;BME280;10993;52.510;13.456;2023-05-11T14:58:48;58182.97;;;-146.93;24.79
21664;BME280;10993;52.510;13.456;2023-05-11T15:03:48;57903.44;;;-146.93;24.64
21664;BME280;10993;52.510;13.456;2023-05-11T15:08:50;58051.28;;;-146.93;24.80
21664;BME280;10993;52.510;13.456;2023-05-11T15:13:50;58132.31;;;-146.93;24.73
21664;BME280;10993;52.510;13.456;2023-05-11T15:18:50;58132.31;;;-146.93;24.99
21664;BME280;10993;52.510;13.456;2023-05-11T15:23:52;58079.66;;;-146.93;24.72
21664;BME280;10993;52.510;13.456;2023-05-11T15:28:52;58061.41;;;-146.93;25.17
21664;BME280;10993;52.510;13.456;2023-05-11T15:33:53;58004.72;;;-146.93;24.97
21664;BME280;10993;52.510;13.456;2023-05-11T15:38:55;58018.88;;;-146.93;24.88
21664;BME280;10993;52.510;13.456;2023-05-11T15:43:55;58061.41;;;-146.93;24.87
21664;BME280;10993;52.510;13.456;2023-05-11T15:48:55;58049.25;;;-146.93;25.28
21664;BME280;10993;52.510;13.456;2023-05-11T15:53:57;58006.72;;;-146.93;25.40
21664;BME280;10993;52.510;13.456;2023-05-11T15:58:57;57986.47;;;-146.93;25.71
21664;BME280;10993;52.510;13.456;2023-05-11T16:03:58;57881.16;;;-146.93;26.00
21664;BME280;10993;52.510;13.456;2023-05-11T16:08:59;57860.91;;;-146.93;25.77
21664;BME280;10993;52.510;13.456;2023-05-11T16:14:00;57856.84;;;-146.93;25.71
21664;BME280;10993;52.510;13.456;2023-05-11T16:19:00;57763.66;;;-146.93;25.76
21664;BME280;10993;52.510;13.456;2023-05-11T16:24:02;57743.41;;;-146.93;25.80
21664;BME280;10993;52.510;13.456;2023-05-11T16:29:02;57747.47;;;-146.93;25.86
21664;BME280;10993;52.510;13.456;2023-05-11T16:34:03;57869.00;;;-146.93;25.71
21664;BME280;10993;52.510;13.456;2023-05-11T16:39:05;57838.63;;;-146.93;25.88
21664;BME280;10993;52.510;13.456;2023-05-11T16:44:05;57869.00;;;-146.93;25.60
21664;BME280;10993;52.510;13.456;2023-05-11T16:49:05;57893.31;;;-146.93;25.85
21664;BME280;10993;52.510;13.456;2023-05-11T16:54:07;57917.59;;;-146.93;25.77
21664;BME280;10993;52.510;13.456;2023-05-11T16:59:09;57731.25;;;-146.93;26.00
21664;BME280;10993;52.510;13.456;2023-05-11T17:04:09;57777.84;;;-146.93;26.16
21664;BME280;10993;52.510;13.456;2023-05-11T17:09:12;57812.28;;;-146.93;26.24
21664;BME280;10993;52.510;13.456;2023-05-11T17:14:12;57719.13;;;-146.93;26.56
21664;BME280;10993;52.510;13.456;2023-05-11T17:19:13;57702.91;;;-146.93;26.64
21664;BME280;10993;52.510;13.456;2023-05-11T17:24:14;57709.00;;;-146.93;27.04
21664;BME280;10993;52.510;13.456;2023-05-11T17:29:15;57702.91;;;-146.93;26.93
21664;BME280;10993;52.510;13.456;2023-05-11T17:34:16;57573.28;;;-146.93;27.07
21664;BME280;10993;52.510;13.456;2023-05-11T17:39:17;57579.38;;;-146.93;27.27
21664;BME280;10993;52.510;13.456;2023-05-11T17:44:19;57589.50;;;-146.93;27.62
21664;BME280;10993;52.510;13.456;2023-05-11T17:49:20;57561.13;;;-146.93;27.63
21664;BME280;10993;52.510;13.456;2023-05-11T17:54:22;57591.50;;;-146.93;27.68
21664;BME280;10993;52.510;13.456;2023-05-11T17:59:22;57573.28;;;-146.93;27.94
21664;BME280;10993;52.510;13.456;2023-05-11T18:04:22;57587.47;;;-146.93;27.90
21664;BME280;10993;52.510;13.456;2023-05-11T18:09:24;57561.13;;;-146.93;28.18
21664;BME280;10993;52.510;13.456;2023-05-11T18:14:24;57508.47;;;-146.93;28.24
21664;BME280;10993;52.510;13.456;2023-05-11T18:19:25;57553.03;;;-146.93;28.42
21664;BME280;10993;52.510;13.456;2023-05-11T18:24:27;57500.38;;;-146.93;28.67
21664;BME280;10993;52.510;13.456;2023-05-11T18:29:27;57459.88;;;-146.93;28.95
21664;BME280;10993;52.510;13.456;2023-05-11T18:34:28;57484.19;;;-146.93;28.95
21664;BME280;10993;52.510;13.456;2023-05-11T18:39:29;57459.88;;;-146.93;29.30
21664;BME280;10993;52.510;13.456;2023-05-11T18:44:29;57429.50;;;-146.93;29.49
21664;BME280;10993;52.510;13.456;2023-05-11T18:49:30;57429.50;;;-146.93;29.75
21664;BME280;10993;52.510;13.456;2023-05-11T18:54:32;57391.00;;;-146.93;30.02
21664;BME280;10993;52.510;13.456;2023-05-11T18:59:33;57415.31;;;-146.93;30.27
21664;BME280;10993;52.510;13.456;2023-05-11T19:04:33;57346.47;;;-146.93;30.78
21664;BME280;10993;52.510;13.456;2023-05-11T19:09:35;57320.13;;;-146.93;31.06
21664;BME280;10993;52.510;13.456;2023-05-11T19:14:35;57360.63;;;-146.93;31.30
21664;BME280;10993;52.510;13.456;2023-05-11T19:19:36;57334.31;;;-146.93;31.43
21664;BME280;10993;52.510;13.456;2023-05-11T19:24:38;57297.84;;;-146.93;31.62
21664;BME280;10993;52.510;13.456;2023-05-11T19:29:38;57303.94;;;-146.93;31.57
21664;BME280;10993;52.510;13.456;2023-05-11T19:34:38;57273.56;;;-146.93;31.88
21664;BME280;10993;52.510;13.456;2023-05-11T19:39:40;57212.81;;;-146.93;32.21
21664;BME280;10993;52.510;13.456;2023-05-11T19:44:43;57224.97;;;-146.93;32.13
21664;BME280;10993;52.510;13.456;2023-05-11T19:49:44;57237.09;;;-146.93;32.24
21664;BME280;10993;52.510;13.456;2023-05-11T19:54:45;57210.78;;;-146.93;31.94
21664;BME280;10993;52.510;13.456;2023-05-11T19:59:46;57226.97;;;-146.93;32.15
21664;BME280;10993;52.510;13.456;2023-05-11T20:04:46;57226.97;;;-146.93;32.02
21664;BME280;10993;52.510;13.456;2023-05-11T20:09:48;57180.41;;;-146.93;32.16
21664;BME280;10993;52.510;13.456;2023-05-11T20:14:49;57184.44;;;-146.93;32.18
21664;BME280;10993;52.510;13.456;2023-05-11T20:19:49;57148.00;;;-146.93;32.42
21664;BME280;10993;52.510;13.456;2023-05-11T20:24:51;57135.84;;;-146.93;32.69
21664;BME280;10993;52.510;13.456;2023-05-11T20:29:51;57160.16;;;-146.93;32.55
21664;BME280;10993;52.510;13.456;2023-05-11T20:34:52;57156.09;;;-146.93;33.03
21664;BME280;10993;52.510;13.456;2023-05-11T20:39:53;57123.69;;;-146.93;33.28
21664;BME280;10993;52.510;13.456;2023-05-11T20:44:54;57150.03;;;-146.93;33.29
21664;BME280;10993;52.510;13.456;2023-05-11T20:49:54;57123.69;;;-146.93;33.58
21664;BME280;10993;52.510;13.456;2023-05-11T20:54:56;56949.56;;;-146.93;33.77
21664;BME280;10993;52.510;13.456;2023-05-11T20:59:56;56951.59;;;-146.93;34.13
21664;BME280;10993;52.510;13.456;2023-05-11T21:04:57;57087.25;;;-146.93;34.21
21664;BME280;10993;52.510;13.456;2023-05-11T21:10:02;57018.41;;;-146.93;34.38
21664;BME280;10993;52.510;13.456;2023-05-11T21:15:03;57099.41;;;-146.93;34.67
21664;BME280;10993;52.510;13.456;2023-05-11T21:20:05;57838.63;;;-146.93;34.99
21664;BME280;10993;52.510;13.456;2023-05-11T21:25:07;57079.16;;;-146.93;34.99
21664;BME280;10993;52.510;13.456;2023-05-11T21:30:08;57117.63;;;-146.93;35.29
21664;BME280;10993;52.510;13.456;2023-05-11T21:35:09;57038.66;;;-146.93;35.53
21664;BME280;10993;52.510;13.456;2023-05-11T21:40:11;56943.47;;;-146.93;35.55
21664;BME280;10993;52.510;13.456;2023-05-11T21:45:12;57038.66;;;-146.93;35.71
21664;BME280;10993;52.510;13.456;2023-05-11T21:50:12;57036.63;;;-146.93;35.92
21664;BME280;10993;52.510;13.456;2023-05-11T21:55:14;57046.75;;;-146.93;36.21
21664;BME280;10993;52.510;13.456;2023-05-11T22:00:15;57008.28;;;-146.93;36.77
21664;BME280;10993;52.510;13.456;2023-05-11T22:05:17;57026.50;;;-146.93;36.57
21664;BME280;10993;52.510;13.456;2023-05-11T22:10:18;57002.19;;;-146.93;36.89
21664;BME280;10993;52.510;13.456;2023-05-11T22:15:19;57018.41;;;-146.93;36.77
21664;BME280;10993;52.510;13.456;2023-05-11T22:20:21;57004.22;;;-146.93;36.87
21664;BME280;10993;52.510;13.456;2023-05-11T22:25:23;56957.66;;;-146.93;36.87
21664;BME280;10993;52.510;13.456;2023-05-11T22:30:23;57064.97;;;-146.93;36.46
21664;BME280;10993;52.510;13.456;2023-05-11T22:35:24;56998.16;;;-146.93;36.28
21664;BME280;10993;52.510;13.456;2023-05-11T22:40:26;56986.00;;;-146.93;36.38
21664;BME280;10993;52.510;13.456;2023-05-11T22:45:26;56953.59;;;-146.93;36.24
21664;BME280;10993;52.510;13.456;2023-05-11T22:50:26;56977.91;;;-146.93;36.21
21664;BME280;10993;52.510;13.456;2023-05-11T22:55:28;56949.56;;;-146.93;36.50
21664;BME280;10993;52.510;13.456;2023-05-11T23:00:29;56963.72;;;-146.93;36.81
21664;BME280;10993;52.510;13.456;2023-05-11T23:05:29;56955.63;;;-146.93;36.96
21664;BME280;10993;52.510;13.456;2023-05-11T23:10:31;56911.09;;;-146.93;36.93
21664;BME280;10993;52.510;13.456;2023-05-11T23:15:32;56913.09;;;-146.93;37.12
21664;BME280;10993;52.510;13.456;2023-05-11T23:20:32;56902.97;;;-146.93;37.38
21664;BME280;10993;52.510;13.456;2023-05-11T23:25:34;56864.50;;;-146.93;37.13
21664;BME280;10993;52.510;13.456;2023-05-11T23:30:34;56858.44;;;-146.93;37.25
21664;BME280;10993;52.510;13.456;2023-05-11T23:35:34;56884.75;;;-146.93;37.30
21664;BME280;10993;52.510;13.456;2023-05-11T23:40:36;56844.25;;;-146.93;37.54
21664;BME280;10993;52.510;13.456;2023-05-11T23:45:37;56787.56;;;-146.93;37.33
21664;BME280;10993;52.510;13.456;2023-05-11T23:50:38;56787.56;;;-146.93;37.39
21664;BME280;10993;52.510;13.456;2023-05-11T23:55:39;56779.47;;;-146.93;37.48
